ADDS METAR Data INFO
IDs: Format: Raw Decoded Include TAF

Data at: 1926 UTC 19 Jul 2018

KPIH 191853Z 24013G18KT 10SM CLR 31/01 A3015 RMK AO2 SLP150 T03110011 $
KPIH 191753Z 26010KT 10SM CLR 29/03 A3016 RMK AO2 SLP155 T02890033 10289 20144 58002 $
KPIH 191653Z 24010KT 10SM CLR 26/06 A3017 RMK AO2 SLP161 T02610061 $
KPIH 191553Z 24011KT 10SM CLR 24/03 A3017 RMK AO2 SLP164 T02440033 $
KPIH 191453Z 23014KT 10SM CLR 23/02 A3017 RMK AO2 SLP162 T02280017 51016 $
KPIH 191353Z 24008KT 10SM CLR 21/02 A3016 RMK AO2 SLP155 T02110017 $
KPIH 191253Z VRB03KT 10SM CLR 15/04 A3014 RMK AO2 SLP152 T01500044 $
KPIH 191153Z 19008KT 10SM CLR 17/03 A3012 RMK AO2 SLP140 T01670033 10244 20144 51008 $
KPIH 191053Z AUTO 20005KT 10SM CLR 17/04 A3011 RMK AO2 SLP139 T01670044 $
KPIH 190953Z AUTO 28007KT 10SM CLR 15/03 A3011 RMK AO2 SLP143 T01500028 $
KPIH 190853Z AUTO 22012KT 10SM CLR 23/M02 A3009 RMK AO2 SLP125 T02281017 51004 $
KPIH 190753Z AUTO 21011KT 10SM CLR 23/M01 A3009 RMK AO2 SLP125 T02281006 $
KPIH 190653Z AUTO 21009KT 10SM CLR 23/00 A3009 RMK AO2 SLP126 T02330000 403610106 $
KPIH 190553Z AUTO 20012KT 10SM CLR 24/03 A3007 RMK AO2 SLP122 T02440028 10356 20228 51010 $
KPIH 190453Z AUTO 21011KT 10SM CLR 24/05 A3007 RMK AO2 SLP123 T02440050 $
KPIH 190353Z 24009KT 10SM CLR 25/06 A3006 RMK AO2 SLP124 T02500056 $
KPIH 190253Z 23009KT 10SM CLR 27/07 A3004 RMK AO2 SLP120 T02720067 55002 $
KPIH 190153Z 25011KT 10SM CLR 31/09 A3003 RMK AO2 SLP117 T03110089 $
KPIH 190053Z 25012KT 10SM CLR 34/07 A3003 RMK AO2 SLP118 T03390067 $
KPIH 182353Z 26013KT 10SM FEW100 36/04 A3005 RMK AO2 SLP122 T03560039 10361 20300 56022 $
KPIH 182253Z 24008G16KT 10SM FEW100 35/02 A3007 RMK AO2 SLP131 T03500022 $
KPIH 182153Z 24009G17KT 10SM CLR 35/02 A3009 RMK AO2 SLP137 T03500017 $
KPIH 182053Z 24011G16KT 10SM CLR 35/02 A3012 RMK AO2 SLP146 T03500017 56015 $
KPIH 181953Z 31007KT 10SM CLR 34/01 A3013 RMK AO2 SLP150 T03440006 $
KPIH 181853Z 10006KT 10SM CLR 33/03 A3014 RMK AO2 SLP154 T03280028 $
KPIH 181753Z VRB04KT 10SM CLR 31/08 A3017 RMK AO2 SLP165 T03060083 10306 20106 58007 $
KPIH 181653Z 32005KT 10SM CLR 28/07 A3019 RMK AO2 SLP169 T02830067 $
KPIH 181553Z 06004KT 10SM CLR 24/07 A3020 RMK AO2 SLP174 T02440067
KPIH 181453Z 09006KT 10SM CLR 20/07 A3020 RMK AO2 SLP178 T02000067 50006
KPIH 181353Z 07003KT 10SM CLR 17/08 A3021 RMK AO2 SLP180 T01670078
KPIH 181253Z 04005KT 10SM CLR 12/07 A3019 RMK AO2 SLP178 T01220072
KPIH 181153Z 00000KT 10SM CLR 12/06 A3018 RMK AO2 SLP172 T01170061 10194 20111 51006
KPIH 181053Z AUTO 00000KT 10SM CLR 13/06 A3018 RMK AO2 SLP169 T01280056
KPIH 180953Z AUTO 19005KT 10SM CLR 13/04 A3017 RMK AO2 SLP166 T01330044
KPIH 180853Z AUTO 25006KT 10SM CLR 14/06 A3016 RMK AO2 SLP161 T01440061 53007
KPIH 180753Z AUTO 19005KT 10SM CLR 14/06 A3014 RMK AO2 SLP158 T01440061